sensor_id;sensor_type;location;lat;lon;timestamp;pressure;altitude;pressure_sealevel;temperature;humidity
55685;BME280;41883;49.544;8.646;2023-05-23T00:01:54;100351.50;;;16.76;nan
55685;BME280;41883;49.544;8.646;2023-05-23T00:04:22;100357.50;;;16.79;nan
55685;BME280;41883;49.544;8.646;2023-05-23T00:06:51;100360.81;;;16.81;nan
55685;BME280;41883;49.544;8.646;2023-05-23T00:09:17;100360.16;;;16.79;nan
55685;BME280;41883;49.544;8.646;2023-05-23T00:11:43;100357.28;;;16.80;nan
55685;BME280;41883;49.544;8.646;2023-05-23T00:14:12;100362.00;;;16.78;nan
55685;BME280;41883;49.544;8.646;2023-05-23T00:16:42;100354.97;;;16.77;nan
55685;BME280;41883;49.544;8.646;2023-05-23T00:19:09;100361.53;;;16.74;nan
55685;BME280;41883;49.544;8.646;2023-05-23T00:21:34;100363.34;;;16.67;nan
55685;BME280;41883;49.544;8.646;2023-05-23T00:24:00;100363.94;;;16.63;nan
55685;BME280;41883;49.544;8.646;2023-05-23T00:26:26;100367.19;;;16.58;nan
55685;BME280;41883;49.544;8.646;2023-05-23T00:28:54;100362.88;;;16.57;nan
55685;BME280;41883;49.544;8.646;2023-05-23T00:31:20;100361.44;;;16.54;nan
55685;BME280;41883;49.544;8.646;2023-05-23T00:33:46;100359.97;;;16.52;nan
55685;BME280;41883;49.544;8.646;2023-05-23T00:36:11;100351.69;;;16.47;nan
55685;BME280;41883;49.544;8.646;2023-05-23T00:38:37;100357.66;;;16.42;nan
55685;BME280;41883;49.544;8.646;2023-05-23T00:41:03;100359.03;;;16.38;nan
55685;BME280;41883;49.544;8.646;2023-05-23T00:43:29;100347.91;;;16.34;nan
55685;BME280;41883;49.544;8.646;2023-05-23T00:45:54;100350.81;;;16.33;nan
55685;BME280;41883;49.544;8.646;2023-05-23T00:48:20;100352.84;;;16.31;nan
55685;BME280;41883;49.544;8.646;2023-05-23T00:50:45;100363.06;;;16.27;nan
55685;BME280;41883;49.544;8.646;2023-05-23T00:53:11;100362.41;;;16.25;nan
55685;BME280;41883;49.544;8.646;2023-05-23T00:55:37;100370.63;;;16.24;nan
55685;BME280;41883;49.544;8.646;2023-05-23T00:58:03;100357.47;;;16.22;nan
55685;BME280;41883;49.544;8.646;2023-05-23T01:00:29;100359.50;;;16.20;nan
55685;BME280;41883;49.544;8.646;2023-05-23T01:02:56;100366.88;;;16.18;nan
55685;BME280;41883;49.544;8.646;2023-05-23T01:05:22;100365.63;;;16.14;nan
55685;BME280;41883;49.544;8.646;2023-05-23T01:07:49;100363.31;;;16.11;nan
55685;BME280;41883;49.544;8.646;2023-05-23T01:10:18;100371.72;;;16.08;nan
55685;BME280;41883;49.544;8.646;2023-05-23T01:12:59;100369.63;;;16.03;nan
55685;BME280;41883;49.544;8.646;2023-05-23T01:18:31;100375.28;;;15.93;nan
55685;BME280;41883;49.544;8.646;2023-05-23T01:21:17;100376.94;;;15.95;nan
55685;BME280;41883;49.544;8.646;2023-05-23T01:28:54;100369.50;;;15.90;nan
55685;BME280;41883;49.544;8.646;2023-05-23T01:31:21;100370.09;;;15.85;nan
55685;BME280;41883;49.544;8.646;2023-05-23T01:33:49;100371.28;;;15.83;nan
55685;BME280;41883;49.544;8.646;2023-05-23T01:36:17;100378.66;;;15.81;nan
55685;BME280;41883;49.544;8.646;2023-05-23T01:38:43;100378.81;;;15.79;nan
55685;BME280;41883;49.544;8.646;2023-05-23T01:41:08;100385.19;;;15.78;nan
55685;BME280;41883;49.544;8.646;2023-05-23T01:43:33;100384.34;;;15.78;nan
55685;BME280;41883;49.544;8.646;2023-05-23T01:45:59;100389.06;;;15.76;nan
55685;BME280;41883;49.544;8.646;2023-05-23T01:48:25;100384.09;;;15.73;nan
55685;BME280;41883;49.544;8.646;2023-05-23T01:50:52;100392.28;;;15.71;nan
55685;BME280;41883;49.544;8.646;2023-05-23T01:53:22;100391.78;;;15.67;nan
55685;BME280;41883;49.544;8.646;2023-05-23T01:55:48;100398.72;;;15.62;nan
55685;BME280;41883;49.544;8.646;2023-05-23T01:58:15;100395.59;;;15.58;nan
55685;BME280;41883;49.544;8.646;2023-05-23T02:00:40;100393.13;;;15.57;nan
55685;BME280;41883;49.544;8.646;2023-05-23T02:03:06;100391.06;;;15.59;nan
55685;BME280;41883;49.544;8.646;2023-05-23T02:05:31;100392.56;;;15.61;nan
55685;BME280;41883;49.544;8.646;2023-05-23T02:07:56;100389.69;;;15.63;nan
55685;BME280;41883;49.544;8.646;2023-05-23T02:10:22;100397.69;;;15.63;nan
55685;BME280;41883;49.544;8.646;2023-05-23T02:12:47;100394.59;;;15.59;nan
55685;BME280;41883;49.544;8.646;2023-05-23T02:15:12;100403.78;;;15.57;nan
55685;BME280;41883;49.544;8.646;2023-05-23T02:17:38;100394.31;;;15.54;nan
55685;BME280;41883;49.544;8.646;2023-05-23T02:20:04;100407.91;;;15.59;nan
55685;BME280;41883;49.544;8.646;2023-05-23T02:22:30;100404.94;;;15.69;nan
55685;BME280;41883;49.544;8.646;2023-05-23T02:24:56;100402.00;;;15.79;nan
55685;BME280;41883;49.544;8.646;2023-05-23T02:27:22;100405.19;;;15.89;nan
55685;BME280;41883;49.544;8.646;2023-05-23T02:29:47;100408.75;;;15.96;nan
55685;BME280;41883;49.544;8.646;2023-05-23T02:32:12;100417.84;;;16.02;nan
55685;BME280;41883;49.544;8.646;2023-05-23T02:34:38;100417.44;;;16.05;nan
55685;BME280;41883;49.544;8.646;2023-05-23T02:37:04;100418.28;;;16.05;nan
55685;BME280;41883;49.544;8.646;2023-05-23T02:39:29;100418.28;;;16.05;nan
55685;BME280;41883;49.544;8.646;2023-05-23T02:41:54;100423.44;;;16.07;nan
55685;BME280;41883;49.544;8.646;2023-05-23T02:44:20;100422.41;;;16.08;nan
55685;BME280;41883;49.544;8.646;2023-05-23T02:46:45;100426.78;;;16.16;nan
55685;BME280;41883;49.544;8.646;2023-05-23T02:49:11;100426.03;;;16.22;nan
55685;BME280;41883;49.544;8.646;2023-05-23T02:51:36;100436.94;;;16.27;nan
55685;BME280;41883;49.544;8.646;2023-05-23T02:54:01;100441.53;;;16.33;nan
55685;BME280;41883;49.544;8.646;2023-05-23T02:56:27;100437.72;;;16.42;nan
55685;BME280;41883;49.544;8.646;2023-05-23T02:58:52;100430.31;;;16.44;nan
55685;BME280;41883;49.544;8.646;2023-05-23T03:01:17;100428.28;;;16.46;nan
55685;BME280;41883;49.544;8.646;2023-05-23T03:03:43;100435.94;;;16.49;nan
55685;BME280;41883;49.544;8.646;2023-05-23T03:06:08;100440.66;;;16.54;nan
55685;BME280;41883;49.544;8.646;2023-05-23T03:08:38;100440.06;;;16.59;nan
55685;BME280;41883;49.544;8.646;2023-05-23T03:11:04;100438.88;;;16.61;nan
55685;BME280;41883;49.544;8.646;2023-05-23T03:13:29;100434.16;;;16.63;nan
55685;BME280;41883;49.544;8.646;2023-05-23T03:15:54;100442.81;;;16.65;nan
55685;BME280;41883;49.544;8.646;2023-05-23T03:18:20;100442.63;;;16.67;nan
55685;BME280;41883;49.544;8.646;2023-05-23T03:20:45;100445.53;;;16.72;nan
55685;BME280;41883;49.544;8.646;2023-05-23T03:23:10;100444.31;;;16.74;nan
55685;BME280;41883;49.544;8.646;2023-05-23T03:25:35;100438.34;;;16.72;nan
55685;BME280;41883;49.544;8.646;2023-05-23T03:28:01;100445.34;;;16.73;nan
55685;BME280;41883;49.544;8.646;2023-05-23T03:30:26;100444.31;;;16.74;nan
55685;BME280;41883;49.544;8.646;2023-05-23T03:32:51;100440.00;;;16.73;nan
55685;BME280;41883;49.544;8.646;2023-05-23T03:35:20;100442.88;;;16.72;nan
55685;BME280;41883;49.544;8.646;2023-05-23T03:37:46;100445.34;;;16.73;nan
55685;BME280;41883;49.544;8.646;2023-05-23T03:40:11;100451.28;;;16.75;nan
55685;BME280;41883;49.544;8.646;2023-05-23T03:42:40;100454.19;;;16.74;nan
55685;BME280;41883;49.544;8.646;2023-05-23T03:45:05;100453.38;;;16.73;nan
55685;BME280;41883;49.544;8.646;2023-05-23T03:47:31;100452.91;;;16.70;nan
55685;BME280;41883;49.544;8.646;2023-05-23T03:49:56;100452.22;;;16.61;nan
55685;BME280;41883;49.544;8.646;2023-05-23T03:52:22;100457.47;;;16.48;nan
55685;BME280;41883;49.544;8.646;2023-05-23T03:54:47;100459.44;;;16.39;nan
55685;BME280;41883;49.544;8.646;2023-05-23T03:57:12;100459.34;;;16.32;nan
55685;BME280;41883;49.544;8.646;2023-05-23T03:59:38;100461.59;;;16.29;nan
55685;BME280;41883;49.544;8.646;2023-05-23T04:02:03;100462.59;;;16.28;nan
55685;BME280;41883;49.544;8.646;2023-05-23T04:04:29;100460.13;;;16.26;nan
55685;BME280;41883;49.544;8.646;2023-05-23T04:06:54;100462.34;;;16.23;nan
55685;BME280;41883;49.544;8.646;2023-05-23T04:09:20;100463.56;;;16.20;nan
55685;BME280;41883;49.544;8.646;2023-05-23T04:11:45;100465.59;;;16.18;nan
55685;BME280;41883;49.544;8.646;2023-05-23T04:14:11;100465.53;;;16.11;nan
55685;BME280;41883;49.544;8.646;2023-05-23T04:16:37;100470.41;;;16.08;nan
55685;BME280;41883;49.544;8.646;2023-05-23T04:19:06;100472.66;;;16.04;nan
55685;BME280;41883;49.544;8.646;2023-05-23T04:21:32;100479.38;;;16.00;nan
55685;BME280;41883;49.544;8.646;2023-05-23T04:23:57;100478.53;;;16.00;nan
55685;BME280;41883;49.544;8.646;2023-05-23T04:26:23;100479.75;;;15.97;nan
55685;BME280;41883;49.544;8.646;2023-05-23T04:28:49;100487.09;;;15.95;nan
55685;BME280;41883;49.544;8.646;2023-05-23T04:31:14;100490.34;;;15.90;nan
55685;BME280;41883;49.544;8.646;2023-05-23T04:33:40;100489.50;;;15.90;nan
55685;BME280;41883;49.544;8.646;2023-05-23T04:36:05;100491.06;;;15.84;nan
55685;BME280;41883;49.544;8.646;2023-05-23T04:38:34;100490.06;;;15.85;nan
55685;BME280;41883;49.544;8.646;2023-05-23T04:40:59;100495.16;;;15.80;nan
55685;BME280;41883;49.544;8.646;2023-05-23T04:43:24;100499.19;;;15.76;nan
55685;BME280;41883;49.544;8.646;2023-05-23T04:45:51;100501.38;;;15.73;nan
55685;BME280;41883;49.544;8.646;2023-05-23T04:48:18;100511.41;;;15.70;nan
55685;BME280;41883;49.544;8.646;2023-05-23T04:50:46;100505.59;;;15.67;nan
55685;BME280;41883;49.544;8.646;2023-05-23T04:53:12;100504.13;;;15.64;nan
55685;BME280;41883;49.544;8.646;2023-05-23T04:55:37;100510.66;;;15.62;nan
55685;BME280;41883;49.544;8.646;2023-05-23T04:58:02;100512.03;;;15.58;nan
55685;BME280;41883;49.544;8.646;2023-05-23T05:00:28;100517.81;;;15.46;nan
55685;BME280;41883;49.544;8.646;2023-05-23T05:02:54;100517.19;;;15.44;nan
55685;BME280;41883;49.544;8.646;2023-05-23T05:05:20;100521.59;;;15.37;nan
55685;BME280;41883;49.544;8.646;2023-05-23T05:07:45;100526.09;;;15.37;nan
55685;BME280;41883;49.544;8.646;2023-05-23T05:10:13;100521.78;;;15.50;nan
55685;BME280;41883;49.544;8.646;2023-05-23T05:12:45;100519.59;;;15.54;nan
55685;BME280;41883;49.544;8.646;2023-05-23T05:15:12;100514.06;;;15.56;nan
55685;BME280;41883;49.544;8.646;2023-05-23T05:17:38;100529.88;;;15.57;nan
55685;BME280;41883;49.544;8.646;2023-05-23T05:20:04;100531.50;;;15.58;nan
55685;BME280;41883;49.544;8.646;2023-05-23T05:22:42;100536.47;;;15.46;nan
55685;BME280;41883;49.544;8.646;2023-05-23T05:25:09;100542.56;;;15.55;nan
55685;BME280;41883;49.544;8.646;2023-05-23T05:27:35;100545.88;;;15.57;nan
55685;BME280;41883;49.544;8.646;2023-05-23T05:30:07;100550.75;;;15.68;nan
55685;BME280;41883;49.544;8.646;2023-05-23T05:32:33;100546.78;;;15.79;nan
55685;BME280;41883;49.544;8.646;2023-05-23T05:35:01;100551.28;;;15.93;nan
55685;BME280;41883;49.544;8.646;2023-05-23T05:37:27;100545.75;;;16.10;nan
55685;BME280;41883;49.544;8.646;2023-05-23T05:39:53;100552.41;;;16.21;nan
55685;BME280;41883;49.544;8.646;2023-05-23T05:42:19;100543.75;;;16.33;nan
55685;BME280;41883;49.544;8.646;2023-05-23T05:44:48;100560.19;;;16.37;nan
55685;BME280;41883;49.544;8.646;2023-05-23T05:47:14;100561.31;;;16.28;nan
55685;BME280;41883;49.544;8.646;2023-05-23T05:49:39;100566.41;;;16.23;nan
55685;BME280;41883;49.544;8.646;2023-05-23T05:52:06;100572.19;;;16.26;nan
55685;BME280;41883;49.544;8.646;2023-05-23T05:54:31;100576.53;;;16.49;nan
55685;BME280;41883;49.544;8.646;2023-05-23T05:56:56;100577.69;;;16.61;nan
55685;BME280;41883;49.544;8.646;2023-05-23T05:59:22;100572.94;;;16.78;nan
55685;BME280;41883;49.544;8.646;2023-05-23T06:01:47;100583.97;;;17.18;nan
55685;BME280;41883;49.544;8.646;2023-05-23T06:04:15;100585.94;;;17.31;nan
55685;BME280;41883;49.544;8.646;2023-05-23T06:06:40;100590.84;;;17.55;nan
55685;BME280;41883;49.544;8.646;2023-05-23T06:09:06;100589.22;;;17.61;nan
55685;BME280;41883;49.544;8.646;2023-05-23T06:11:31;100597.34;;;17.74;nan
55685;BME280;41883;49.544;8.646;2023-05-23T06:13:56;100594.66;;;17.74;nan
55685;BME280;41883;49.544;8.646;2023-05-23T06:16:21;100595.41;;;17.61;nan
55685;BME280;41883;49.544;8.646;2023-05-23T06:18:47;100598.31;;;17.67;nan
55685;BME280;41883;49.544;8.646;2023-05-23T06:21:12;100599.53;;;17.64;nan
55685;BME280;41883;49.544;8.646;2023-05-23T06:23:37;100599.78;;;17.41;nan
55685;BME280;41883;49.544;8.646;2023-05-23T06:26:03;100602.22;;;17.36;nan
55685;BME280;41883;49.544;8.646;2023-05-23T06:28:32;100602.94;;;17.23;nan
55685;BME280;41883;49.544;8.646;2023-05-23T06:30:57;100601.56;;;17.06;nan
55685;BME280;41883;49.544;8.646;2023-05-23T06:33:22;100604.38;;;16.97;nan
55685;BME280;41883;49.544;8.646;2023-05-23T06:35:47;100608.50;;;17.00;nan
55685;BME280;41883;49.544;8.646;2023-05-23T06:38:13;100609.78;;;17.04;nan
55685;BME280;41883;49.544;8.646;2023-05-23T06:40:38;100617.50;;;17.20;nan
55685;BME280;41883;49.544;8.646;2023-05-23T06:43:03;100613.34;;;17.11;nan
55685;BME280;41883;49.544;8.646;2023-05-23T06:45:29;100616.91;;;17.18;nan
55685;BME280;41883;49.544;8.646;2023-05-23T06:47:54;100615.22;;;17.17;nan
55685;BME280;41883;49.544;8.646;2023-05-23T06:50:19;100624.94;;;17.25;nan
55685;BME280;41883;49.544;8.646;2023-05-23T06:52:44;100628.19;;;17.20;nan
55685;BME280;41883;49.544;8.646;2023-05-23T06:55:11;100626.75;;;17.18;nan
55685;BME280;41883;49.544;8.646;2023-05-23T06:57:39;100637.03;;;17.43;nan
55685;BME280;41883;49.544;8.646;2023-05-23T07:00:05;100634.97;;;17.45;nan
55685;BME280;41883;49.544;8.646;2023-05-23T07:02:30;100637.03;;;17.43;nan
55685;BME280;41883;49.544;8.646;2023-05-23T07:04:56;100630.59;;;17.37;nan
55685;BME280;41883;49.544;8.646;2023-05-23T07:07:21;100641.03;;;17.32;nan
55685;BME280;41883;49.544;8.646;2023-05-23T07:09:46;100637.50;;;17.25;nan
55685;BME280;41883;49.544;8.646;2023-05-23T07:12:12;100642.78;;;17.18;nan
55685;BME280;41883;49.544;8.646;2023-05-23T07:14:37;100640.31;;;17.16;nan
55685;BME280;41883;49.544;8.646;2023-05-23T07:17:02;100650.16;;;17.16;nan
55685;BME280;41883;49.544;8.646;2023-05-23T07:19:27;100647.69;;;17.14;nan
55685;BME280;41883;49.544;8.646;2023-05-23T07:21:53;100641.06;;;17.10;nan
55685;BME280;41883;49.544;8.646;2023-05-23T07:24:18;100648.91;;;17.12;nan
55685;BME280;41883;49.544;8.646;2023-05-23T07:26:43;100654.34;;;17.04;nan
55685;BME280;41883;49.544;8.646;2023-05-23T07:29:08;100647.38;;;17.03;nan
55685;BME280;41883;49.544;8.646;2023-05-23T07:31:34;100652.00;;;17.15;nan
55685;BME280;41883;49.544;8.646;2023-05-23T07:33:59;100654.09;;;17.20;nan
55685;BME280;41883;49.544;8.646;2023-05-23T07:36:24;100651.31;;;17.28;nan
55685;BME280;41883;49.544;8.646;2023-05-23T07:38:50;100652.19;;;17.35;nan
55685;BME280;41883;49.544;8.646;2023-05-23T07:41:17;100655.94;;;17.41;nan
55685;BME280;41883;49.544;8.646;2023-05-23T07:43:42;100655.22;;;17.32;nan
55685;BME280;41883;49.544;8.646;2023-05-23T07:46:07;100650.34;;;17.36;nan
55685;BME280;41883;49.544;8.646;2023-05-23T07:48:32;100652.50;;;17.47;nan
55685;BME280;41883;49.544;8.646;2023-05-23T07:50:58;100660.31;;;17.77;nan
55685;BME280;41883;49.544;8.646;2023-05-23T07:53:23;100651.19;;;17.99;nan
55685;BME280;41883;49.544;8.646;2023-05-23T07:55:48;100647.16;;;18.10;nan
55685;BME280;41883;49.544;8.646;2023-05-23T07:58:13;100654.84;;;18.27;nan
55685;BME280;41883;49.544;8.646;2023-05-23T08:00:39;100653.03;;;18.34;nan
55685;BME280;41883;49.544;8.646;2023-05-23T08:03:05;100652.22;;;18.33;nan
55685;BME280;41883;49.544;8.646;2023-05-23T08:05:30;100644.94;;;18.20;nan
55685;BME280;41883;49.544;8.646;2023-05-23T08:07:56;100644.03;;;18.00;nan
55685;BME280;41883;49.544;8.646;2023-05-23T08:10:21;100658.28;;;18.14;nan
55685;BME280;41883;49.544;8.646;2023-05-23T08:12:46;100661.66;;;18.29;nan
55685;BME280;41883;49.544;8.646;2023-05-23T08:15:11;100659.28;;;18.61;nan
55685;BME280;41883;49.544;8.646;2023-05-23T08:17:37;100656.84;;;18.66;nan
55685;BME280;41883;49.544;8.646;2023-05-23T08:20:02;100659.81;;;18.84;nan
55685;BME280;41883;49.544;8.646;2023-05-23T08:22:29;100656.97;;;19.13;nan
55685;BME280;41883;49.544;8.646;2023-05-23T08:24:54;100659.47;;;19.41;nan
55685;BME280;41883;49.544;8.646;2023-05-23T08:27:20;100660.88;;;19.63;nan
55685;BME280;41883;49.544;8.646;2023-05-23T08:29:45;100653.66;;;19.50;nan
55685;BME280;41883;49.544;8.646;2023-05-23T08:32:10;100651.41;;;19.27;nan
55685;BME280;41883;49.544;8.646;2023-05-23T08:34:35;100654.91;;;19.28;nan
55685;BME280;41883;49.544;8.646;2023-05-23T08:37:01;100660.66;;;19.51;nan
55685;BME280;41883;49.544;8.646;2023-05-23T08:39:26;100656.75;;;19.67;nan
55685;BME280;41883;49.544;8.646;2023-05-23T08:41:52;100664.63;;;19.69;nan
55685;BME280;41883;49.544;8.646;2023-05-23T08:44:17;100668.53;;;19.60;nan
55685;BME280;41883;49.544;8.646;2023-05-23T08:46:45;100667.50;;;19.81;nan
55685;BME280;41883;49.544;8.646;2023-05-23T08:49:12;100667.66;;;19.99;nan
55685;BME280;41883;49.544;8.646;2023-05-23T08:51:41;100666.84;;;20.95;nan
55685;BME280;41883;49.544;8.646;2023-05-23T08:54:07;100664.53;;;22.18;nan
55685;BME280;41883;49.544;8.646;2023-05-23T08:56:34;100660.66;;;23.35;nan
55685;BME280;41883;49.544;8.646;2023-05-23T08:58:59;100660.00;;;23.86;nan
55685;BME280;41883;49.544;8.646;2023-05-23T09:01:25;100661.66;;;23.76;nan
55685;BME280;41883;49.544;8.646;2023-05-23T09:03:50;100668.22;;;24.44;nan
55685;BME280;41883;49.544;8.646;2023-05-23T09:06:16;100672.06;;;25.34;nan
55685;BME280;41883;49.544;8.646;2023-05-23T09:08:45;100669.47;;;25.61;nan
55685;BME280;41883;49.544;8.646;2023-05-23T09:11:10;100682.41;;;26.54;nan
55685;BME280;41883;49.544;8.646;2023-05-23T09:13:38;100668.97;;;26.20;nan
55685;BME280;41883;49.544;8.646;2023-05-23T09:16:06;100671.47;;;26.48;nan
55685;BME280;41883;49.544;8.646;2023-05-23T09:18:42;100664.78;;;26.12;nan
55685;BME280;41883;49.544;8.646;2023-05-23T09:21:08;100671.16;;;26.23;nan
55685;BME280;41883;49.544;8.646;2023-05-23T09:23:36;100673.88;;;26.23;nan
55685;BME280;41883;49.544;8.646;2023-05-23T09:26:07;100666.03;;;24.98;nan
55685;BME280;41883;49.544;8.646;2023-05-23T09:28:33;100667.00;;;24.11;nan
55685;BME280;41883;49.544;8.646;2023-05-23T09:31:02;100663.50;;;23.40;nan
55685;BME280;41883;49.544;8.646;2023-05-23T09:35:59;100666.56;;;23.43;nan
55685;BME280;41883;49.544;8.646;2023-05-23T09:38:25;100682.22;;;23.77;nan
55685;BME280;41883;49.544;8.646;2023-05-23T09:40:53;100671.63;;;24.39;nan
55685;BME280;41883;49.544;8.646;2023-05-23T09:43:20;100671.47;;;25.32;nan
55685;BME280;41883;49.544;8.646;2023-05-23T09:45:46;100671.38;;;26.60;nan
55685;BME280;41883;49.544;8.646;2023-05-23T09:48:11;100677.22;;;27.06;nan
55685;BME280;41883;49.544;8.646;2023-05-23T09:50:37;100675.50;;;26.46;nan
55685;BME280;41883;49.544;8.646;2023-05-23T09:53:05;100673.25;;;26.16;nan
55685;BME280;41883;49.544;8.646;2023-05-23T09:55:31;100670.13;;;25.68;nan
55685;BME280;41883;49.544;8.646;2023-05-23T09:57:58;100674.81;;;25.90;nan
55685;BME280;41883;49.544;8.646;2023-05-23T10:00:24;100668.69;;;25.27;nan
55685;BME280;41883;49.544;8.646;2023-05-23T10:03:09;100671.50;;;24.86;nan
55685;BME280;41883;49.544;8.646;2023-05-23T10:05:46;100671.50;;;23.70;nan
55685;BME280;41883;49.544;8.646;2023-05-23T10:08:19;100677.22;;;23.26;nan
55685;BME280;41883;49.544;8.646;2023-05-23T10:13:22;100682.00;;;22.34;nan
55685;BME280;41883;49.544;8.646;2023-05-23T10:15:50;100682.69;;;22.04;nan
55685;BME280;41883;49.544;8.646;2023-05-23T10:18:25;100685.41;;;22.04;nan
55685;BME280;41883;49.544;8.646;2023-05-23T10:20:53;100685.41;;;21.60;nan
55685;BME280;41883;49.544;8.646;2023-05-23T10:23:21;100676.41;;;21.48;nan
55685;BME280;41883;49.544;8.646;2023-05-23T10:25:47;100683.09;;;21.64;nan
55685;BME280;41883;49.544;8.646;2023-05-23T10:28:12;100682.13;;;21.58;nan
55685;BME280;41883;49.544;8.646;2023-05-23T10:30:38;100681.75;;;21.55;nan
55685;BME280;41883;49.544;8.646;2023-05-23T10:33:05;100689.88;;;21.92;nan
55685;BME280;41883;49.544;8.646;2023-05-23T10:35:55;100693.19;;;22.49;nan
55685;BME280;41883;49.544;8.646;2023-05-23T10:38:33;100686.03;;;22.73;nan
55685;BME280;41883;49.544;8.646;2023-05-23T10:41:10;100692.03;;;22.26;nan
55685;BME280;41883;49.544;8.646;2023-05-23T10:43:44;100693.59;;;22.34;nan
55685;BME280;41883;49.544;8.646;2023-05-23T10:46:13;100689.03;;;22.35;nan
55685;BME280;41883;49.544;8.646;2023-05-23T10:48:42;100688.19;;;22.53;nan
55685;BME280;41883;49.544;8.646;2023-05-23T10:51:09;100693.53;;;22.41;nan
55685;BME280;41883;49.544;8.646;2023-05-23T10:53:36;100695.22;;;22.17;nan
55685;BME280;41883;49.544;8.646;2023-05-23T10:56:06;100689.72;;;21.87;nan
55685;BME280;41883;49.544;8.646;2023-05-23T10:58:32;100693.28;;;21.80;nan
55685;BME280;41883;49.544;8.646;2023-05-23T11:01:05;100689.72;;;21.36;nan
55685;BME280;41883;49.544;8.646;2023-05-23T11:03:32;100688.25;;;21.09;nan
55685;BME280;41883;49.544;8.646;2023-05-23T11:05:59;100690.44;;;20.93;nan
55685;BME280;41883;49.544;8.646;2023-05-23T11:08:25;100690.31;;;20.75;nan
55685;BME280;41883;49.544;8.646;2023-05-23T11:13:18;100693.50;;;20.58;nan
55685;BME280;41883;49.544;8.646;2023-05-23T11:15:44;100695.13;;;20.66;nan
55685;BME280;41883;49.544;8.646;2023-05-23T11:18:19;100690.78;;;20.72;nan
55685;BME280;41883;49.544;8.646;2023-05-23T11:20:45;100690.31;;;20.75;nan
55685;BME280;41883;49.544;8.646;2023-05-23T11:23:11;100694.53;;;21.03;nan
55685;BME280;41883;49.544;8.646;2023-05-23T11:25:42;100696.94;;;21.11;nan
55685;BME280;41883;49.544;8.646;2023-05-23T11:28:08;100698.91;;;21.29;nan
55685;BME280;41883;49.544;8.646;2023-05-23T11:30:34;100691.81;;;21.34;nan
55685;BME280;41883;49.544;8.646;2023-05-23T11:33:08;100694.84;;;21.13;nan
55685;BME280;41883;49.544;8.646;2023-05-23T11:35:36;100697.13;;;21.48;nan
55685;BME280;41883;49.544;8.646;2023-05-23T11:38:04;100692.47;;;21.30;nan
55685;BME280;41883;49.544;8.646;2023-05-23T11:43:08;100692.44;;;22.05;nan
55685;BME280;41883;49.544;8.646;2023-05-23T11:45:35;100683.59;;;22.72;nan
55685;BME280;41883;49.544;8.646;2023-05-23T11:48:10;100683.59;;;23.91;nan
55685;BME280;41883;49.544;8.646;2023-05-23T11:50:50;100679.13;;;25.74;nan
55685;BME280;41883;49.544;8.646;2023-05-23T11:53:16;100691.31;;;25.54;nan
55685;BME280;41883;49.544;8.646;2023-05-23T11:55:51;100687.31;;;24.66;nan
55685;BME280;41883;49.544;8.646;2023-05-23T11:58:20;100688.50;;;23.59;nan
55685;BME280;41883;49.544;8.646;2023-05-23T12:00:46;100690.94;;;22.64;nan
55685;BME280;41883;49.544;8.646;2023-05-23T12:03:11;100682.78;;;21.79;nan
55685;BME280;41883;49.544;8.646;2023-05-23T12:05:37;100684.22;;;21.25;nan
55685;BME280;41883;49.544;8.646;2023-05-23T12:08:02;100683.59;;;20.97;nan
55685;BME280;41883;49.544;8.646;2023-05-23T12:10:28;100685.44;;;20.97;nan
55685;BME280;41883;49.544;8.646;2023-05-23T12:12:53;100679.69;;;20.93;nan
55685;BME280;41883;49.544;8.646;2023-05-23T12:15:24;100674.34;;;20.87;nan
55685;BME280;41883;49.544;8.646;2023-05-23T12:17:52;100679.59;;;21.07;nan
55685;BME280;41883;49.544;8.646;2023-05-23T12:20:18;100678.69;;;21.19;nan
55685;BME280;41883;49.544;8.646;2023-05-23T12:22:44;100683.47;;;21.42;nan
55685;BME280;41883;49.544;8.646;2023-05-23T12:25:09;100689.22;;;21.53;nan
55685;BME280;41883;49.544;8.646;2023-05-23T12:27:35;100688.47;;;21.39;nan
55685;BME280;41883;49.544;8.646;2023-05-23T12:30:13;100693.38;;;21.49;nan
55685;BME280;41883;49.544;8.646;2023-05-23T12:32:41;100693.16;;;21.50;nan
55685;BME280;41883;49.544;8.646;2023-05-23T12:35:08;100696.94;;;21.68;nan
55685;BME280;41883;49.544;8.646;2023-05-23T12:37:34;100687.22;;;22.10;nan
55685;BME280;41883;49.544;8.646;2023-05-23T12:40:13;100687.94;;;22.54;nan
55685;BME280;41883;49.544;8.646;2023-05-23T12:42:59;100689.75;;;22.60;nan
55685;BME280;41883;49.544;8.646;2023-05-23T12:45:35;100687.84;;;22.79;nan
55685;BME280;41883;49.544;8.646;2023-05-23T12:48:04;100682.09;;;22.87;nan
55685;BME280;41883;49.544;8.646;2023-05-23T12:50:30;100689.94;;;22.77;nan
55685;BME280;41883;49.544;8.646;2023-05-23T12:52:56;100690.03;;;21.97;nan
55685;BME280;41883;49.544;8.646;2023-05-23T12:55:21;100681.75;;;21.55;nan
55685;BME280;41883;49.544;8.646;2023-05-23T12:57:46;100677.91;;;21.69;nan
55685;BME280;41883;49.544;8.646;2023-05-23T13:00:12;100681.44;;;21.88;nan
55685;BME280;41883;49.544;8.646;2023-05-23T13:02:38;100684.84;;;22.20;nan
55685;BME280;41883;49.544;8.646;2023-05-23T13:05:04;100675.25;;;22.43;nan
55685;BME280;41883;49.544;8.646;2023-05-23T13:07:29;100673.53;;;22.48;nan
55685;BME280;41883;49.544;8.646;2023-05-23T13:09:55;100676.28;;;22.60;nan
55685;BME280;41883;49.544;8.646;2023-05-23T13:12:20;100668.31;;;22.96;nan
55685;BME280;41883;49.544;8.646;2023-05-23T13:14:47;100676.16;;;22.97;nan
55685;BME280;41883;49.544;8.646;2023-05-23T13:17:13;100675.13;;;22.68;nan
55685;BME280;41883;49.544;8.646;2023-05-23T13:19:38;100679.03;;;22.54;nan
55685;BME280;41883;49.544;8.646;2023-05-23T13:22:05;100682.56;;;22.54;nan
55685;BME280;41883;49.544;8.646;2023-05-23T13:24:34;100674.84;;;22.58;nan
55685;BME280;41883;49.544;8.646;2023-05-23T13:27:00;100674.13;;;22.32;nan